createdAt,value
2023-03-29T00:01:11.813Z,0.60
2023-03-29T00:04:02.667Z,0.70
2023-03-29T00:06:32.844Z,0.70
2023-03-29T00:09:01.588Z,0.60
2023-03-29T00:11:29.296Z,0.60
2023-03-29T00:13:56.987Z,0.60
2023-03-29T00:16:24.684Z,0.70
2023-03-29T00:18:52.368Z,0.60
2023-03-29T00:21:21.338Z,0.60
2023-03-29T00:23:49.002Z,0.70
2023-03-29T00:26:16.673Z,0.60
2023-03-29T00:28:44.345Z,0.60
2023-03-29T00:31:13.031Z,0.40
2023-03-29T00:33:41.277Z,0.55
2023-03-29T00:36:10.230Z,0.60
2023-03-29T00:38:39.716Z,0.55
2023-03-29T00:41:07.870Z,0.70
2023-03-29T00:43:54.276Z,0.55
2023-03-29T00:46:22.071Z,0.70
2023-03-29T00:48:50.442Z,0.70
2023-03-29T00:51:18.843Z,0.80
2023-03-29T00:53:49.635Z,0.70
2023-03-29T00:56:19.434Z,0.60
2023-03-29T00:58:48.940Z,0.60
2023-03-29T01:01:19.316Z,0.70
2023-03-29T01:03:50.442Z,0.80
2023-03-29T01:06:18.788Z,0.60
2023-03-29T01:08:49.584Z,0.55
2023-03-29T01:11:18.881Z,0.63
2023-03-29T01:13:47.847Z,0.60
2023-03-29T01:16:15.611Z,0.70
2023-03-29T01:18:43.693Z,0.55
2023-03-29T01:21:17.249Z,0.63
2023-03-29T01:24:37.869Z,0.57
2023-03-29T01:27:11.265Z,0.60
2023-03-29T01:29:41.078Z,0.57
2023-03-29T01:32:09.828Z,0.70
2023-03-29T01:34:39.784Z,0.80
2023-03-29T01:37:10.049Z,0.50
2023-03-29T01:39:37.760Z,0.60
2023-03-29T01:42:21.977Z,0.57
2023-03-29T01:44:53.927Z,0.80
2023-03-29T01:47:26.151Z,0.68
2023-03-29T01:49:57.948Z,0.80
2023-03-29T01:52:26.498Z,0.60
2023-03-29T01:54:55.798Z,0.65
2023-03-29T01:57:24.970Z,0.75
2023-03-29T01:59:54.211Z,0.60
2023-03-29T02:02:21.973Z,0.60
2023-03-29T02:04:51.695Z,0.50
2023-03-29T02:07:21.371Z,0.70
2023-03-29T02:09:49.387Z,0.57
2023-03-29T02:12:17.068Z,0.70
2023-03-29T02:14:45.252Z,0.80
2023-03-29T02:17:22.088Z,0.65
2023-03-29T02:19:51.015Z,0.65
2023-03-29T02:22:22.020Z,0.60
2023-03-29T02:24:50.027Z,0.68
2023-03-29T02:27:17.848Z,0.50
2023-03-29T02:29:46.823Z,0.60
2023-03-29T02:32:17.509Z,0.50
2023-03-29T02:34:47.658Z,0.65
2023-03-29T02:37:17.855Z,0.57
2023-03-29T02:39:47.594Z,0.60
2023-03-29T02:42:16.955Z,0.60
2023-03-29T02:44:46.193Z,0.65
2023-03-29T02:47:16.150Z,0.73
2023-03-29T02:49:43.927Z,0.60
2023-03-29T02:52:14.743Z,0.60
2023-03-29T02:54:43.336Z,0.60
2023-03-29T02:57:11.205Z,0.45
2023-03-29T02:59:40.761Z,0.63
2023-03-29T03:02:08.530Z,0.60
2023-03-29T03:04:36.470Z,0.50
2023-03-29T03:07:05.607Z,0.70
2023-03-29T03:09:35.426Z,0.70
2023-03-29T03:12:03.136Z,0.70
2023-03-29T03:14:31.104Z,0.68
2023-03-29T03:17:03.124Z,0.80
2023-03-29T03:19:32.284Z,0.63
2023-03-29T03:22:00.033Z,0.60
2023-03-29T03:24:28.612Z,0.50
2023-03-29T03:26:58.456Z,0.52
2023-03-29T03:29:26.142Z,0.70
2023-03-29T03:32:13.417Z,0.60
2023-03-29T03:34:59.808Z,0.57
2023-03-29T03:37:28.461Z,0.60
2023-03-29T03:39:56.601Z,0.60
2023-03-29T03:42:28.070Z,0.68
2023-03-29T03:44:55.812Z,0.63
2023-03-29T03:47:42.306Z,0.60
2023-03-29T03:50:21.255Z,0.50
2023-03-29T03:52:49.258Z,0.60
2023-03-29T03:55:17.031Z,0.80
2023-03-29T03:57:53.519Z,0.70
2023-03-29T04:00:23.194Z,0.70
2023-03-29T04:03:09.226Z,0.60
2023-03-29T04:05:40.073Z,0.70
2023-03-29T04:08:08.056Z,0.63
2023-03-29T04:10:56.736Z,0.65
2023-03-29T04:13:30.828Z,0.63
2023-03-29T04:16:18.062Z,0.77
2023-03-29T04:18:46.083Z,0.80
2023-03-29T04:21:13.806Z,0.70
2023-03-29T04:23:42.890Z,0.68
2023-03-29T04:26:12.007Z,0.60
2023-03-29T04:28:49.993Z,0.52
2023-03-29T04:31:22.723Z,0.70
2023-03-29T04:34:13.660Z,0.60
2023-03-29T04:36:41.431Z,0.80
2023-03-29T04:39:17.889Z,0.57
2023-03-29T04:41:48.410Z,0.65
2023-03-29T04:44:22.663Z,0.88
2023-03-29T04:46:50.790Z,0.60
2023-03-29T04:49:46.887Z,0.50
2023-03-29T04:52:24.389Z,0.55
2023-03-29T04:54:53.281Z,0.65
2023-03-29T04:57:39.620Z,0.60
2023-03-29T05:00:16.863Z,0.60
2023-03-29T05:03:05.905Z,0.65
2023-03-29T05:05:37.379Z,0.60
2023-03-29T05:08:05.418Z,0.80
2023-03-29T05:10:59.204Z,0.70
2023-03-29T05:13:28.743Z,0.70
2023-03-29T05:15:58.106Z,0.63
2023-03-29T05:18:26.154Z,0.70
2023-03-29T05:20:54.038Z,0.60
2023-03-29T05:23:22.554Z,0.55
2023-03-29T05:26:22.473Z,0.60
2023-03-29T05:28:53.451Z,0.60
2023-03-29T05:31:22.813Z,0.80
2023-03-29T05:33:54.597Z,0.60
2023-03-29T05:36:23.363Z,0.57
2023-03-29T05:38:51.696Z,0.68
2023-03-29T05:41:22.680Z,0.65
2023-03-29T05:44:22.788Z,0.55
2023-03-29T05:46:57.167Z,0.40
2023-03-29T05:49:25.434Z,0.70
2023-03-29T05:52:07.524Z,0.70
2023-03-29T05:54:36.690Z,0.70
2023-03-29T05:57:06.329Z,0.70
2023-03-29T05:59:34.616Z,0.60
2023-03-29T06:02:04.903Z,0.70
2023-03-29T06:04:35.795Z,0.70
2023-03-29T06:07:24.298Z,0.70
2023-03-29T06:10:15.620Z,0.75
2023-03-29T06:12:49.346Z,0.63
2023-03-29T06:15:18.652Z,0.70
2023-03-29T06:17:52.963Z,0.70
2023-03-29T06:20:21.454Z,0.80
2023-03-29T06:22:54.001Z,0.70
2023-03-29T06:25:24.882Z,0.70
2023-03-29T06:27:52.930Z,0.70
2023-03-29T06:30:21.840Z,0.55
2023-03-29T06:32:55.491Z,0.70
2023-03-29T06:35:48.383Z,0.70
2023-03-29T06:38:20.727Z,0.70
2023-03-29T06:41:11.047Z,0.60
2023-03-29T06:44:10.944Z,0.70
2023-03-29T06:46:51.250Z,0.63
2023-03-29T06:49:20.662Z,0.63
2023-03-29T06:52:14.490Z,0.77
2023-03-29T06:54:43.333Z,0.63
2023-03-29T06:57:13.272Z,0.80
2023-03-29T06:59:41.209Z,0.73
2023-03-29T07:02:22.634Z,0.90
2023-03-29T07:04:58.064Z,0.70
2023-03-29T07:07:53.601Z,0.68
2023-03-29T07:10:42.256Z,0.60
2023-03-29T07:13:22.340Z,0.70
2023-03-29T07:15:51.408Z,0.70
2023-03-29T07:18:34.473Z,0.73
2023-03-29T07:21:04.767Z,0.68
2023-03-29T07:23:32.713Z,0.68
2023-03-29T07:26:01.238Z,0.70
2023-03-29T07:28:29.220Z,0.70
2023-03-29T07:31:03.273Z,1.13
2023-03-29T07:33:31.992Z,0.63
2023-03-29T07:36:04.897Z,0.70
2023-03-29T07:38:32.934Z,0.57
2023-03-29T07:41:08.991Z,0.70
2023-03-29T07:43:48.199Z,0.60
2023-03-29T07:46:21.781Z,0.70
2023-03-29T07:48:50.623Z,0.70
2023-03-29T07:51:19.692Z,0.70
2023-03-29T07:53:54.032Z,0.60
2023-03-29T07:56:49.453Z,0.85
2023-03-29T07:59:32.714Z,0.80
2023-03-29T08:02:13.874Z,0.60
2023-03-29T08:04:48.037Z,0.70
2023-03-29T08:07:20.956Z,0.60
2023-03-29T08:10:22.296Z,0.77
2023-03-29T08:13:05.940Z,0.70
2023-03-29T08:15:46.223Z,0.80
2023-03-29T08:18:23.957Z,0.75
2023-03-29T08:20:52.588Z,0.70
2023-03-29T08:23:21.683Z,0.80
2023-03-29T08:26:08.613Z,0.75
2023-03-29T08:28:36.564Z,0.82
2023-03-29T08:31:04.579Z,0.68
2023-03-29T08:33:32.773Z,0.70
2023-03-29T08:36:26.598Z,0.70
2023-03-29T08:38:58.313Z,0.75
2023-03-29T08:41:34.087Z,0.60
2023-03-29T08:44:10.766Z,0.80
2023-03-29T08:46:59.757Z,0.90
2023-03-29T08:49:36.506Z,0.77
2023-03-29T08:52:06.410Z,0.60
2023-03-29T08:54:42.113Z,0.68
2023-03-29T08:57:13.249Z,0.68
2023-03-29T08:59:52.315Z,0.90
2023-03-29T09:02:23.265Z,0.90
2023-03-29T09:04:59.937Z,0.70
2023-03-29T09:07:48.029Z,0.70
2023-03-29T09:10:18.931Z,0.80
2023-03-29T09:12:55.470Z,0.80
2023-03-29T09:15:24.866Z,0.60
2023-03-29T09:18:25.918Z,0.60
2023-03-29T09:20:56.959Z,0.70
2023-03-29T09:23:52.736Z,0.80
2023-03-29T09:26:38.702Z,0.70
2023-03-29T09:29:32.167Z,0.70
2023-03-29T09:32:00.061Z,0.70
2023-03-29T09:34:30.744Z,0.98
2023-03-29T09:37:03.894Z,0.70
2023-03-29T09:39:31.965Z,0.80
2023-03-29T09:42:11.907Z,0.70
2023-03-29T09:44:43.676Z,0.80
2023-03-29T09:47:19.498Z,0.80
2023-03-29T09:49:50.139Z,0.70
2023-03-29T09:52:18.153Z,0.80
2023-03-29T09:54:54.382Z,0.82
2023-03-29T09:57:41.346Z,0.80
2023-03-29T10:00:10.597Z,0.70
2023-03-29T10:02:52.552Z,0.80
2023-03-29T10:05:25.532Z,0.70
2023-03-29T10:07:54.703Z,0.70
2023-03-29T10:10:23.854Z,0.80
2023-03-29T10:12:53.841Z,0.75
2023-03-29T10:17:57.769Z,0.68
2023-03-29T10:20:25.642Z,0.70
2023-03-29T10:22:56.584Z,0.70
2023-03-29T10:25:27.096Z,0.65
2023-03-29T10:27:57.422Z,0.85
2023-03-29T10:30:25.948Z,0.88
2023-03-29T10:32:57.829Z,0.70
2023-03-29T10:35:28.615Z,0.70
2023-03-29T10:37:57.498Z,0.80
2023-03-29T10:40:27.861Z,0.70
2023-03-29T10:42:59.165Z,0.70
2023-03-29T10:45:28.141Z,0.77
2023-03-29T10:47:56.838Z,0.60
2023-03-29T10:50:26.566Z,0.80
2023-03-29T10:52:54.294Z,0.73
2023-03-29T10:55:22.073Z,0.70
2023-03-29T10:57:56.900Z,0.70
2023-03-29T11:00:28.260Z,0.68
2023-03-29T11:03:15.630Z,0.95
2023-03-29T11:05:46.459Z,0.70
2023-03-29T11:08:22.523Z,0.70
2023-03-29T11:10:54.756Z,0.90
2023-03-29T11:13:24.496Z,0.90
2023-03-29T11:16:00.490Z,0.90
2023-03-29T11:18:51.545Z,0.85
2023-03-29T11:21:24.739Z,1.08
2023-03-29T11:23:57.988Z,1.60
2023-03-29T11:26:27.062Z,1.90
2023-03-29T11:28:57.599Z,1.60
2023-03-29T11:31:31.813Z,1.50
2023-03-29T11:34:06.660Z,1.92
2023-03-29T11:36:38.818Z,2.30
2023-03-29T11:39:11.323Z,2.53
2023-03-29T11:41:39.735Z,2.70
2023-03-29T11:44:10.268Z,2.53
2023-03-29T11:46:40.634Z,2.30
2023-03-29T11:49:12.240Z,2.55
2023-03-29T11:51:42.440Z,2.60
2023-03-29T11:54:14.912Z,4.65
2023-03-29T11:56:45.110Z,3.95
2023-03-29T11:59:14.761Z,4.15
2023-03-29T12:01:46.295Z,4.55
2023-03-29T12:04:17.587Z,4.38
2023-03-29T12:06:47.746Z,3.15
2023-03-29T12:09:23.760Z,3.22
2023-03-29T12:11:53.779Z,2.60
2023-03-29T12:14:22.921Z,2.85
2023-03-29T12:16:53.743Z,2.47
2023-03-29T12:19:23.757Z,2.40
2023-03-29T12:21:51.559Z,2.45
2023-03-29T12:24:20.724Z,2.50
2023-03-29T12:27:11.656Z,2.33
2023-03-29T12:29:46.563Z,2.20
2023-03-29T12:32:28.412Z,2.85
2023-03-29T12:35:15.184Z,2.58
2023-03-29T12:38:08.198Z,3.60
2023-03-29T12:40:55.753Z,2.90
2023-03-29T12:44:03.458Z,2.85
2023-03-29T12:46:54.330Z,3.40
2023-03-29T12:49:27.914Z,2.78
2023-03-29T12:51:56.125Z,3.17
2023-03-29T12:54:27.509Z,3.40
2023-03-29T12:56:58.049Z,4.32
2023-03-29T12:59:27.378Z,3.30
2023-03-29T13:01:59.607Z,3.90
2023-03-29T13:04:38.627Z,3.70
2023-03-29T13:07:06.987Z,4.78
2023-03-29T13:09:36.716Z,3.83
2023-03-29T13:12:09.333Z,3.88
2023-03-29T13:14:37.687Z,3.40
2023-03-29T13:17:17.677Z,3.70
2023-03-29T13:19:49.768Z,3.97
2023-03-29T13:22:23.516Z,4.15
2023-03-29T13:25:01.148Z,3.45
2023-03-29T13:27:34.136Z,3.45
2023-03-29T13:30:09.165Z,3.72
2023-03-29T13:32:47.047Z,3.42
2023-03-29T13:35:22.437Z,3.55
2023-03-29T13:37:56.971Z,3.20
2023-03-29T13:40:28.495Z,3.28
2023-03-29T13:42:59.272Z,3.72
2023-03-29T13:45:28.050Z,3.60
2023-03-29T13:48:05.412Z,3.50
2023-03-29T13:50:39.460Z,3.88
2023-03-29T13:53:11.570Z,3.60
2023-03-29T13:55:43.985Z,3.40
2023-03-29T13:58:13.305Z,3.55
2023-03-29T14:00:42.770Z,4.55
2023-03-29T14:03:12.827Z,8.35
2023-03-29T14:05:43.287Z,4.57
2023-03-29T14:08:15.678Z,5.30
2023-03-29T14:10:44.526Z,4.75
2023-03-29T14:13:13.587Z,3.88
2023-03-29T14:15:44.711Z,4.63
2023-03-29T14:18:12.914Z,4.18
2023-03-29T14:20:44.030Z,6.00
2023-03-29T14:23:14.340Z,4.43
2023-03-29T14:25:43.475Z,4.68
2023-03-29T14:28:20.931Z,4.50
2023-03-29T14:30:49.769Z,4.82
2023-03-29T14:33:25.851Z,5.20
2023-03-29T14:35:55.015Z,9.32
2023-03-29T14:38:23.498Z,6.00
2023-03-29T14:40:51.321Z,4.72
2023-03-29T14:43:21.996Z,4.97
2023-03-29T14:45:49.930Z,5.30
2023-03-29T14:48:17.787Z,3.95
2023-03-29T14:50:45.582Z,4.85
2023-03-29T14:53:18.338Z,6.20
2023-03-29T14:55:46.720Z,14.05
2023-03-29T14:58:17.799Z,22.70
2023-03-29T15:00:45.548Z,16.65
2023-03-29T15:03:14.174Z,14.68
2023-03-29T15:05:42.449Z,12.88
2023-03-29T15:08:14.872Z,11.48
2023-03-29T15:10:45.028Z,14.05
2023-03-29T15:13:16.360Z,10.93
2023-03-29T15:15:44.065Z,11.85
2023-03-29T15:18:12.983Z,28.20
2023-03-29T15:20:41.166Z,11.55
2023-03-29T15:23:22.105Z,12.25
2023-03-29T15:25:53.963Z,11.93
2023-03-29T15:28:28.232Z,10.00
2023-03-29T15:31:07.289Z,9.80
2023-03-29T15:33:36.809Z,10.75
2023-03-29T15:36:05.383Z,12.68
2023-03-29T15:38:43.023Z,9.77
2023-03-29T15:41:14.339Z,11.95
2023-03-29T15:43:42.644Z,10.02
2023-03-29T15:46:12.072Z,9.95
2023-03-29T15:48:39.757Z,10.48
2023-03-29T15:51:07.659Z,11.70
2023-03-29T15:53:36.168Z,27.98
2023-03-29T15:56:04.417Z,21.85
2023-03-29T15:58:34.436Z,14.98
2023-03-29T16:01:11.114Z,14.82
2023-03-29T16:03:38.980Z,12.63
2023-03-29T16:06:07.641Z,13.32
2023-03-29T16:08:35.831Z,10.88
2023-03-29T16:11:04.983Z,12.75
2023-03-29T16:13:34.081Z,10.60
2023-03-29T16:16:02.015Z,10.80
2023-03-29T16:18:29.989Z,10.60
2023-03-29T16:20:59.251Z,10.40
2023-03-29T16:23:26.943Z,9.85
2023-03-29T16:25:54.628Z,9.82
2023-03-29T16:28:22.419Z,10.30
2023-03-29T16:30:51.566Z,9.57
2023-03-29T16:33:19.239Z,9.80
2023-03-29T16:35:47.231Z,9.43
2023-03-29T16:38:14.956Z,9.35
2023-03-29T16:40:43.612Z,9.07
2023-03-29T16:43:14.233Z,8.70
2023-03-29T16:45:41.974Z,8.95
2023-03-29T16:48:12.990Z,8.15
2023-03-29T16:50:40.857Z,8.93
2023-03-29T16:53:08.745Z,10.68
2023-03-29T16:55:37.910Z,8.85
2023-03-29T16:58:05.834Z,7.70
2023-03-29T17:00:33.650Z,9.85
2023-03-29T17:03:02.148Z,8.70
2023-03-29T17:05:31.756Z,11.20
2023-03-29T17:07:59.407Z,8.38
2023-03-29T17:10:27.059Z,8.43
2023-03-29T17:12:54.704Z,9.95
2023-03-29T17:15:22.509Z,9.52
2023-03-29T17:17:50.216Z,9.02
2023-03-29T17:20:18.112Z,9.80
2023-03-29T17:22:48.956Z,10.68
2023-03-29T17:25:16.759Z,10.27
2023-03-29T17:27:45.369Z,9.40
2023-03-29T17:30:13.644Z,8.93
2023-03-29T17:32:42.893Z,9.55
2023-03-29T17:35:10.804Z,9.23
2023-03-29T17:37:38.538Z,9.48
2023-03-29T17:40:11.235Z,8.88
2023-03-29T17:42:38.924Z,8.68
2023-03-29T17:45:08.100Z,8.48
2023-03-29T17:47:35.895Z,8.40
2023-03-29T17:50:03.595Z,8.88
2023-03-29T17:52:31.293Z,8.63
2023-03-29T17:54:58.969Z,8.80
2023-03-29T17:57:28.038Z,8.13
2023-03-29T17:59:55.994Z,8.30
2023-03-29T18:02:24.590Z,8.30
2023-03-29T18:04:52.637Z,8.18
2023-03-29T18:07:20.324Z,8.88
2023-03-29T18:09:48.018Z,7.57
2023-03-29T18:12:16.617Z,7.70
2023-03-29T18:14:45.625Z,7.65
2023-03-29T18:17:13.293Z,7.18
2023-03-29T18:19:40.990Z,7.47
2023-03-29T18:22:08.658Z,7.97
2023-03-29T18:24:36.389Z,7.72
2023-03-29T18:27:04.100Z,7.40
2023-03-29T18:29:31.767Z,7.63
2023-03-29T18:32:02.822Z,7.28
2023-03-29T18:34:31.176Z,6.28
2023-03-29T18:36:58.840Z,7.35
2023-03-29T18:39:27.225Z,7.68
2023-03-29T18:41:54.928Z,6.82
2023-03-29T18:44:27.115Z,7.45
2023-03-29T18:46:55.277Z,6.00
2023-03-29T18:49:24.885Z,7.18
2023-03-29T18:51:54.216Z,6.65
2023-03-29T18:54:21.952Z,5.95
2023-03-29T18:56:49.607Z,6.60
2023-03-29T18:59:17.533Z,6.32
2023-03-29T19:01:45.220Z,6.18
2023-03-29T19:04:14.260Z,7.18
2023-03-29T19:06:43.252Z,6.53
2023-03-29T19:09:10.901Z,6.18
2023-03-29T19:11:38.629Z,6.85
2023-03-29T19:14:08.779Z,6.28
2023-03-29T19:16:36.782Z,6.47
2023-03-29T19:19:05.605Z,6.28
2023-03-29T19:21:33.365Z,6.00
2023-03-29T19:24:04.945Z,6.38
2023-03-29T19:26:33.418Z,6.38
2023-03-29T19:29:01.256Z,6.45
2023-03-29T19:31:28.962Z,5.70
2023-03-29T19:33:56.665Z,6.20
2023-03-29T19:36:24.372Z,5.50
2023-03-29T19:38:53.965Z,6.07
2023-03-29T19:41:23.943Z,5.43
2023-03-29T19:43:51.597Z,5.45
2023-03-29T19:46:20.323Z,6.32
2023-03-29T19:48:48.061Z,5.50
2023-03-29T19:51:15.725Z,5.75
2023-03-29T19:53:43.400Z,5.75
2023-03-29T19:56:13.114Z,5.32
2023-03-29T19:58:42.118Z,5.45
2023-03-29T20:01:09.781Z,5.60
2023-03-29T20:03:37.525Z,5.75
2023-03-29T20:06:05.518Z,5.22
2023-03-29T20:08:33.206Z,5.35
2023-03-29T20:11:02.807Z,5.22
2023-03-29T20:13:38.353Z,5.18
2023-03-29T20:16:08.666Z,5.38
2023-03-29T20:18:38.126Z,5.22
2023-03-29T20:21:05.994Z,5.30
2023-03-29T20:23:33.832Z,5.00
2023-03-29T20:26:01.500Z,4.50
2023-03-29T20:28:29.213Z,5.10
2023-03-29T20:30:56.874Z,5.22
2023-03-29T20:33:26.109Z,5.18
2023-03-29T20:35:53.897Z,5.28
2023-03-29T20:38:21.841Z,4.63
2023-03-29T20:40:49.868Z,5.00
2023-03-29T20:43:20.022Z,4.30
2023-03-29T20:45:52.723Z,4.70
2023-03-29T20:48:22.845Z,4.82
2023-03-29T20:50:52.119Z,4.72
2023-03-29T20:53:20.337Z,5.10
2023-03-29T20:55:48.338Z,4.80
2023-03-29T20:58:16.480Z,4.40
2023-03-29T21:00:44.461Z,4.82
2023-03-29T21:03:12.213Z,4.32
2023-03-29T21:05:39.926Z,3.97
2023-03-29T21:08:09.218Z,4.78
2023-03-29T21:10:38.642Z,5.07
2023-03-29T21:13:06.288Z,4.63
2023-03-29T21:15:33.982Z,4.97
2023-03-29T21:18:01.879Z,4.82
2023-03-29T21:20:29.796Z,5.07
2023-03-29T21:22:57.536Z,4.90
2023-03-29T21:25:26.555Z,4.65
2023-03-29T21:27:54.204Z,5.25
2023-03-29T21:30:21.847Z,4.70
2023-03-29T21:32:49.581Z,4.70
2023-03-29T21:35:17.448Z,4.63
2023-03-29T21:37:45.178Z,5.13
2023-03-29T21:40:14.416Z,5.18
2023-03-29T21:42:43.471Z,4.88
2023-03-29T21:45:11.852Z,4.80
2023-03-29T21:47:39.689Z,4.90
2023-03-29T21:50:08.211Z,4.65
2023-03-29T21:52:37.614Z,4.97
2023-03-29T21:55:05.722Z,4.35
2023-03-29T21:57:33.483Z,4.82
2023-03-29T22:00:02.534Z,4.63
2023-03-29T22:02:32.959Z,4.43
2023-03-29T22:05:00.689Z,4.43
2023-03-29T22:07:28.574Z,4.70
2023-03-29T22:09:58.551Z,4.95
2023-03-29T22:12:26.977Z,4.30
2023-03-29T22:14:54.671Z,4.40
2023-03-29T22:17:26.623Z,4.15
2023-03-29T22:19:56.572Z,4.68
2023-03-29T22:22:24.358Z,3.75
2023-03-29T22:24:53.501Z,4.03
2023-03-29T22:27:21.276Z,4.22
2023-03-29T22:29:49.004Z,4.28
2023-03-29T22:32:16.807Z,3.90
2023-03-29T22:34:46.025Z,4.20
2023-03-29T22:37:13.670Z,4.20
2023-03-29T22:39:41.336Z,4.38
2023-03-29T22:42:08.992Z,4.57
2023-03-29T22:44:36.862Z,4.07
2023-03-29T22:47:04.534Z,4.38
2023-03-29T22:49:32.186Z,3.97
2023-03-29T22:52:01.448Z,3.65
2023-03-29T22:54:29.402Z,4.32
2023-03-29T22:56:57.139Z,4.32
2023-03-29T22:59:25.056Z,3.85
2023-03-29T23:01:52.881Z,4.30
2023-03-29T23:04:20.670Z,3.78
2023-03-29T23:06:48.343Z,3.67
2023-03-29T23:09:17.309Z,3.58
2023-03-29T23:11:45.018Z,3.92
2023-03-29T23:14:12.728Z,3.90
2023-03-29T23:16:40.422Z,4.00
2023-03-29T23:19:08.082Z,3.88
2023-03-29T23:21:37.010Z,3.90
2023-03-29T23:24:05.019Z,3.35
2023-03-29T23:26:35.622Z,4.22
2023-03-29T23:29:03.997Z,3.60
2023-03-29T23:31:33.700Z,3.67
2023-03-29T23:34:03.088Z,3.17
2023-03-29T23:36:31.915Z,3.80
2023-03-29T23:38:59.678Z,3.75
2023-03-29T23:41:28.231Z,3.75
2023-03-29T23:43:57.500Z,4.07
2023-03-29T23:46:25.954Z,3.65
2023-03-29T23:48:53.666Z,3.50
2023-03-29T23:51:23.401Z,3.63
2023-03-29T23:53:51.648Z,3.40
2023-03-29T23:56:19.354Z,4.28
2023-03-29T23:58:47.116Z,4.18
